Time;durP1;ratioP1;P1;durP2;ratioP2;P2;SDS_P1;SDS_P2;PMS_P1;PMS_P2;Temp;Humidity;BMP_temperature;BMP_pressure;BME280_temperature;BME280_humidity;BME280_pressure;Samples;Min_cycle;Max_cycle;Signal;HPM_P1;HPM_P2
2023/02/04 00:00:50;;;;;;;;;14.67;14.00;;;;;13.78;100.00;103120.19;5099587;27;45601;-80
2023/02/04 00:03:15;;;;;;;;;11.33;11.00;;;;;13.78;100.00;103129.06;5094970;27;47338;-80
2023/02/04 00:05:41;;;;;;;;;15.00;14.00;;;;;13.75;100.00;103124.84;5099571;27;45330;-81
2023/02/04 00:08:07;;;;;;;;;13.33;13.00;;;;;13.82;100.00;103127.81;5095973;27;45325;-80
2023/02/04 00:10:33;;;;;;;;;16.33;16.33;;;;;13.86;100.00;103129.22;5101554;27;46386;-80
2023/02/04 00:12:58;;;;;;;;;16.00;14.00;;;;;13.87;100.00;103127.41;5102786;27;45428;-80
2023/02/04 00:15:23;;;;;;;;;17.00;15.00;;;;;13.96;100.00;103121.25;5102912;27;48989;-81
2023/02/04 00:17:49;;;;;;;;;12.00;12.00;;;;;13.93;100.00;103120.66;5103228;27;45406;-81
2023/02/04 00:20:14;;;;;;;;;14.00;14.00;;;;;13.93;100.00;103120.66;5103005;27;47347;-80
2023/02/04 00:22:40;;;;;;;;;14.00;14.00;;;;;13.82;100.00;103111.78;5102844;27;45250;-81
2023/02/04 00:25:06;;;;;;;;;17.67;16.33;;;;;13.82;100.00;103110.91;5103056;27;45334;-80
2023/02/04 00:27:31;;;;;;;;;17.00;16.67;;;;;13.86;100.00;103110.50;5102970;27;45261;-80
2023/02/04 00:29:56;;;;;;;;;18.00;17.00;;;;;13.87;100.00;103100.66;5101723;27;45172;-80
2023/02/04 00:32:22;;;;;;;;;18.67;16.33;;;;;13.87;100.00;103108.69;5102573;27;46757;-81
2023/02/04 00:34:48;;;;;;;;;19.67;17.33;;;;;13.84;100.00;103096.47;5102672;27;45217;-81
2023/02/04 00:37:13;;;;;;;;;19.00;16.33;;;;;13.83;100.00;103096.59;5103059;27;45206;-80
2023/02/04 00:39:38;;;;;;;;;19.00;18.00;;;;;13.85;100.00;103099.97;5102063;27;45609;-81
2023/02/04 00:42:05;;;;;;;;;14.33;13.00;;;;;13.87;100.00;103109.56;5102706;27;46046;-81
2023/02/04 00:44:30;;;;;;;;;19.33;16.67;;;;;13.87;100.00;103106.88;5102268;27;45509;-81
2023/02/04 00:46:56;;;;;;;;;17.33;17.33;;;;;13.79;100.00;103097.84;5101193;27;45354;-80
2023/02/04 00:49:21;;;;;;;;;18.00;16.67;;;;;13.79;100.00;103105.84;5102377;27;45379;-81
2023/02/04 00:51:47;;;;;;;;;14.67;14.00;;;;;13.75;100.00;103099.94;5097658;27;47284;-81
2023/02/04 00:54:14;;;;;;;;;17.00;17.00;;;;;13.75;100.00;103106.16;5099885;27;45652;-81
2023/02/04 00:56:40;;;;;;;;;18.00;18.00;;;;;13.71;100.00;103099.38;5097928;27;45373;-80
2023/02/04 00:59:07;;;;;;;;;17.67;15.67;;;;;13.75;100.00;103105.28;5100672;27;46164;-81
2023/02/04 01:01:32;;;;;;;;;18.67;18.33;;;;;13.76;100.00;103101.63;5102140;27;47544;-81
2023/02/04 01:03:58;;;;;;;;;20.33;19.00;;;;;13.69;100.00;103104.03;5102121;27;45216;-80
2023/02/04 01:06:23;;;;;;;;;14.67;14.67;;;;;13.68;100.00;103109.50;5108410;27;45424;-81
2023/02/04 01:08:48;;;;;;;;;17.00;17.00;;;;;13.60;100.00;103103.03;5102416;27;45545;-80
2023/02/04 01:11:14;;;;;;;;;15.00;14.67;;;;;13.62;100.00;103113.56;5097263;27;55113;-80
2023/02/04 01:13:39;;;;;;;;;19.67;19.00;;;;;13.63;100.00;103110.75;5100883;27;45278;-80
2023/02/04 01:16:04;;;;;;;;;16.00;15.67;;;;;13.69;100.00;103125.41;5102115;27;45396;-81
2023/02/04 01:18:30;;;;;;;;;19.33;19.00;;;;;13.91;100.00;103118.13;5096382;27;45784;-80
2023/02/04 01:20:55;;;;;;;;;19.33;17.33;;;;;13.82;100.00;103118.94;5092325;27;54616;-80
2023/02/04 01:23:20;;;;;;;;;19.33;18.00;;;;;13.73;100.00;103124.13;5101793;27;45247;-80
2023/02/04 01:25:46;;;;;;;;;20.00;18.67;;;;;13.66;100.00;103117.66;5100555;27;45428;-81
2023/02/04 01:28:11;;;;;;;;;20.67;20.67;;;;;13.68;100.00;103122.88;5100302;27;46200;-81
2023/02/04 01:30:36;;;;;;;;;18.67;18.00;;;;;13.66;100.00;103122.16;5101425;27;45344;-80
2023/02/04 01:33:02;;;;;;;;;18.67;17.67;;;;;13.63;100.00;103113.44;5101680;27;45380;-80
2023/02/04 01:35:27;;;;;;;;;19.33;18.67;;;;;13.67;100.00;103122.00;5102102;27;45367;-81
2023/02/04 01:37:52;;;;;;;;;18.67;16.33;;;;;13.63;100.00;103121.47;5101405;27;45235;-80
2023/02/04 01:40:18;;;;;;;;;21.67;19.67;;;;;13.63;100.00;103125.94;5101577;27;45976;-81
2023/02/04 01:42:43;;;;;;;;;17.00;16.67;;;;;13.66;100.00;103125.66;5096709;27;46179;-81
2023/02/04 01:45:10;;;;;;;;;22.33;19.00;;;;;13.67;100.00;103129.16;5092584;27;45307;-80
2023/02/04 01:47:36;;;;;;;;;20.00;17.33;;;;;13.68;100.00;103122.88;5101421;27;45313;-80
2023/02/04 01:50:02;;;;;;;;;22.33;19.33;;;;;13.71;100.00;103123.41;5099728;27;48544;-81
2023/02/04 01:52:33;;;;;;;;;16.00;14.00;;;;;13.68;100.00;103128.22;5101196;27;45184;-80
2023/02/04 01:54:58;;;;;;;;;24.00;19.33;;;;;13.68;100.00;103131.72;5101713;27;45331;-81
2023/02/04 01:57:23;;;;;;;;;22.00;18.33;;;;;13.69;100.00;103130.75;5100978;27;45544;-80
2023/02/04 01:59:53;;;;;;;;;19.33;18.67;;;;;13.70;100.00;103129.75;5096422;27;47978;-80
2023/02/04 02:02:49;;;;;;;;;21.67;21.67;;;;;13.69;100.00;103122.72;5099673;27;45369;-80
2023/02/04 02:05:20;;;;;;;;;17.00;17.00;;;;;13.73;100.00;103123.28;5087876;27;45425;-80
2023/02/04 02:07:46;;;;;;;;;18.67;18.67;;;;;13.74;100.00;103116.97;5108293;27;46230;-80
2023/02/04 02:10:12;;;;;;;;;20.00;19.67;;;;;13.75;100.00;103119.50;5100978;27;45290;-80
2023/02/04 02:12:39;;;;;;;;;20.00;18.00;;;;;13.82;100.00;103124.28;5101103;27;45272;-80
2023/02/04 02:15:04;;;;;;;;;20.67;20.33;;;;;13.81;100.00;103119.94;5100816;27;45398;-80
2023/02/04 02:17:30;;;;;;;;;24.00;22.00;;;;;13.76;100.00;103109.66;5101033;27;45360;-80
2023/02/04 02:19:55;;;;;;;;;19.00;17.33;;;;;13.69;100.00;103104.03;5100897;27;46013;-80
2023/02/04 02:22:31;;;;;;;;;22.00;21.00;;;;;13.73;100.00;103112.59;5096171;27;46097;-81
2023/02/04 02:24:56;;;;;;;;;25.00;21.00;;;;;13.75;100.00;103114.16;5099267;27;45316;-81
2023/02/04 02:27:22;;;;;;;;;18.00;18.00;;;;;13.72;100.00;103106.41;5100940;27;45449;-81
2023/02/04 02:29:48;;;;;;;;;21.33;18.33;;;;;13.76;100.00;103107.84;5099600;27;46305;-80
2023/02/04 02:32:14;;;;;;;;;18.33;18.00;;;;;13.77;100.00;103108.69;5100390;27;45387;-81
2023/02/04 02:34:41;;;;;;;;;22.33;20.33;;;;;13.72;100.00;103105.56;5100640;27;45470;-81
2023/02/04 02:37:10;;;;;;;;;19.00;17.33;;;;;13.66;100.00;103095.41;5096093;27;46384;-80
2023/02/04 02:39:42;;;;;;;;;18.33;18.33;;;;;13.65;100.00;103101.75;5099328;27;45372;-81
2023/02/04 02:42:09;;;;;;;;;20.00;19.00;;;;;13.55;100.00;103102.56;5100810;27;45420;-80
2023/02/04 02:44:34;;;;;;;;;21.00;18.00;;;;;13.58;100.00;103104.13;5100459;27;45443;-80
2023/02/04 02:47:00;;;;;;;;;22.67;22.67;;;;;13.78;100.00;103106.84;5100529;27;45353;-81
2023/02/04 02:49:29;;;;;;;;;19.00;16.67;;;;;13.60;100.00;103103.03;5095947;27;47192;-80
2023/02/04 02:51:54;;;;;;;;;20.67;19.00;;;;;13.62;100.00;103108.22;5093516;27;45356;-80
2023/02/04 02:54:29;;;;;;;;;17.67;17.67;;;;;13.53;100.00;103104.53;5100491;27;45292;-81
2023/02/04 02:56:55;;;;;;;;;17.33;17.33;;;;;13.59;100.00;103116.50;5098990;27;47050;-80
2023/02/04 02:59:21;;;;;;;;;19.67;18.00;;;;;13.57;100.00;103108.63;5100054;27;45661;-80
2023/02/04 03:01:50;;;;;;;;;25.00;20.33;;;;;13.62;100.00;103103.72;5099017;27;45200;-80
2023/02/04 03:04:17;;;;;;;;;21.00;20.00;;;;;13.60;100.00;103099.50;5100479;27;45427;-80
2023/02/04 03:06:43;;;;;;;;;18.00;18.00;;;;;13.64;100.00;103106.25;5105463;27;46204;-81
2023/02/04 03:09:09;;;;;;;;;22.00;21.33;;;;;13.62;100.00;103098.38;5098910;27;48262;-80
2023/02/04 03:11:34;;;;;;;;;21.00;20.33;;;;;13.62;100.00;103098.38;5099944;27;45326;-80
2023/02/04 03:14:00;;;;;;;;;20.00;18.00;;;;;13.68;100.00;103109.50;5098872;27;45327;-80
2023/02/04 03:16:28;;;;;;;;;19.00;18.00;;;;;13.67;100.00;103108.66;5100092;27;45453;-80
2023/02/04 03:18:53;;;;;;;;;19.33;19.33;;;;;13.70;100.00;103116.38;5095357;27;47375;-80
2023/02/04 03:21:18;;;;;;;;;21.33;21.33;;;;;13.67;100.00;103110.47;5095095;27;45467;-80
2023/02/04 03:23:44;;;;;;;;;19.67;19.67;;;;;13.71;100.00;103111.91;5100364;27;45209;-80
2023/02/04 03:26:09;;;;;;;;;23.67;20.33;;;;;13.71;100.00;103114.56;5099898;27;45363;-80
2023/02/04 03:28:39;;;;;;;;;17.67;16.67;;;;;13.72;100.00;103116.25;5099797;27;46007;-80
2023/02/04 03:31:04;;;;;;;;;20.33;20.00;;;;;13.73;100.00;103108.09;5099667;27;45274;-80
2023/02/04 03:33:30;;;;;;;;;25.67;20.67;;;;;13.75;100.00;103108.81;5098662;27;45350;-81
2023/02/04 03:35:56;;;;;;;;;24.33;22.33;;;;;13.76;100.00;103109.66;5098474;27;46415;-82
2023/02/04 03:38:22;;;;;;;;;20.33;18.33;;;;;13.76;100.00;103117.66;5099789;27;45347;-81
2023/02/04 03:40:47;;;;;;;;;19.00;17.00;;;;;13.76;100.00;103117.66;5099771;27;45161;-81
2023/02/04 03:43:12;;;;;;;;;18.67;17.00;;;;;13.68;100.00;103113.00;5099340;27;45461;-81
2023/02/04 03:45:38;;;;;;;;;20.00;18.33;;;;;13.63;100.00;103108.09;5099521;27;45250;-80
2023/02/04 03:48:03;;;;;;;;;18.33;18.33;;;;;13.61;100.00;103111.84;5099567;27;47963;-80
2023/02/04 03:50:28;;;;;;;;;18.67;18.67;;;;;13.57;100.00;103111.31;5096619;27;45285;-80
2023/02/04 03:52:54;;;;;;;;;21.33;18.33;;;;;13.52;100.00;103102.84;5099519;27;45522;-80
2023/02/04 03:55:20;;;;;;;;;22.00;22.00;;;;;13.50;100.00;103118.19;5084363;27;46106;-80
2023/02/04 03:57:45;;;;;;;;;23.00;19.67;;;;;13.48;100.00;103128.97;5099445;27;45506;-80
2023/02/04 04:00:11;;;;;;;;;21.33;19.00;;;;;13.57;100.00;103124.66;5099155;27;45396;-80
2023/02/04 04:02:36;;;;;;;;;21.00;20.33;;;;;13.45;100.00;103126.56;5098525;27;45279;-81
2023/02/04 04:05:02;;;;;;;;;21.33;19.67;;;;;13.42;100.00;103117.97;5099283;27;45299;-80
2023/02/04 04:07:27;;;;;;;;;18.33;17.67;;;;;13.43;100.00;103127.66;5106078;27;46214;-81
2023/02/04 04:09:53;;;;;;;;;20.67;19.67;;;;;13.45;100.00;103139.06;5099511;27;45357;-80
2023/02/04 04:12:18;;;;;;;;;20.33;20.33;;;;;13.42;100.00;103124.16;5099841;27;45760;-80
2023/02/04 04:14:43;;;;;;;;;21.00;21.00;;;;;13.51;100.00;103130.53;5098980;27;45448;-80
2023/02/04 04:17:09;;;;;;;;;19.67;19.67;;;;;13.41;100.00;103133.13;5098236;27;48201;-80
2023/02/04 04:19:34;;;;;;;;;20.33;19.33;;;;;13.44;100.00;103143.53;5085754;27;45275;-80
2023/02/04 04:21:59;;;;;;;;;23.00;19.00;;;;;13.41;100.00;103138.47;5099455;27;45515;-80
2023/02/04 04:24:25;;;;;;;;;20.33;20.00;;;;;13.36;100.00;103128.22;5097925;27;45508;-81
2023/02/04 04:26:50;;;;;;;;;24.00;23.00;;;;;13.47;100.00;103139.78;5087154;27;45232;-80
2023/02/04 04:29:15;;;;;;;;;20.33;18.33;;;;;13.44;100.00;103132.03;5098322;27;54448;-80
2023/02/04 04:31:41;;;;;;;;;23.33;23.33;;;;;13.40;100.00;103131.44;5094194;27;52166;-81
2023/02/04 04:34:06;;;;;;;;;20.00;19.67;;;;;13.41;100.00;103133.13;5093458;27;45476;-81
2023/02/04 04:36:31;;;;;;;;;18.00;18.00;;;;;13.32;100.00;103137.44;5099441;27;45257;-81
2023/02/04 04:38:57;;;;;;;;;22.00;20.67;;;;;13.36;100.00;103136.22;5099079;27;45235;-80
2023/02/04 04:41:22;;;;;;;;;19.00;15.67;;;;;13.45;100.00;103139.06;5099124;27;45439;-81
2023/02/04 04:43:47;;;;;;;;;23.00;20.67;;;;;13.38;100.00;103139.59;5098573;27;46810;-81
2023/02/04 04:46:12;;;;;;;;;24.33;22.33;;;;;13.40;100.00;103139.47;5093990;27;57135;-80
2023/02/04 04:48:38;;;;;;;;;22.00;19.67;;;;;13.44;100.00;103132.03;5091639;27;47587;-80
2023/02/04 04:51:03;;;;;;;;;20.00;20.00;;;;;13.37;100.00;103131.72;5097446;27;45353;-80
2023/02/04 04:53:28;;;;;;;;;22.00;19.33;;;;;13.49;100.00;103133.34;5099185;27;45430;-81
2023/02/04 04:55:54;;;;;;;;;18.33;17.33;;;;;13.43;100.00;103130.31;5102117;27;45270;-80
2023/02/04 04:58:19;;;;;;;;;22.67;22.67;;;;;13.45;100.00;103137.25;5101972;27;45494;-80
2023/02/04 05:00:44;;;;;;;;;18.00;17.67;;;;;13.48;100.00;103146.81;5097657;27;45463;-80
2023/02/04 05:03:10;;;;;;;;;20.33;18.67;;;;;13.43;100.00;103138.34;5094517;27;46473;-80
2023/02/04 05:05:38;;;;;;;;;20.67;18.67;;;;;13.43;100.00;103141.88;5096669;27;57073;-80
2023/02/04 05:08:05;;;;;;;;;22.33;18.67;;;;;13.49;100.00;103152.06;5109265;27;45412;-80
2023/02/04 05:10:30;;;;;;;;;22.00;22.00;;;;;13.49;100.00;103151.16;5101970;27;45357;-81
2023/02/04 05:12:55;;;;;;;;;22.67;20.00;;;;;13.53;100.00;103146.44;5100260;27;48694;-81
2023/02/04 05:15:21;;;;;;;;;23.00;19.33;;;;;13.52;100.00;103136.75;5101721;27;48971;-81
2023/02/04 05:17:46;;;;;;;;;22.00;20.67;;;;;13.41;100.00;103140.31;5097421;27;45290;-81
2023/02/04 05:20:11;;;;;;;;;20.67;19.33;;;;;13.36;100.00;103135.38;5101179;27;45253;-80
2023/02/04 05:22:37;;;;;;;;;21.67;20.67;;;;;13.38;100.00;103138.78;5101437;27;57668;-80
2023/02/04 05:25:02;;;;;;;;;21.67;21.00;;;;;13.44;100.00;103138.22;5101409;27;45299;-80
2023/02/04 05:27:28;;;;;;;;;14.67;14.67;;;;;13.43;100.00;103149.88;5102237;27;45245;-80
2023/02/04 05:29:53;;;;;;;;;22.00;22.00;;;;;13.38;100.00;103141.44;5101198;27;46321;-80
2023/02/04 05:32:18;;;;;;;;;21.33;19.33;;;;;13.45;100.00;103150.59;5102012;27;45243;-80
2023/02/04 05:34:44;;;;;;;;;22.00;20.00;;;;;13.46;100.00;103152.28;5096598;27;48321;-80
2023/02/04 05:37:09;;;;;;;;;17.67;17.33;;;;;13.55;100.00;103155.16;5092076;27;45664;-80
2023/02/04 05:39:35;;;;;;;;;21.00;20.00;;;;;13.54;100.00;103140.97;5101803;27;45385;-79
2023/02/04 05:42:00;;;;;;;;;17.33;16.33;;;;;13.61;100.00;103155.47;5101429;27;50233;-83
2023/02/04 05:44:25;;;;;;;;;21.50;19.00;;;;;13.61;100.00;103152.78;5101065;27;46126;-81
2023/02/04 05:46:50;;;;;;;;;22.67;17.00;;;;;13.57;100.00;103148.72;5101651;27;45345;-81
2023/02/04 05:49:16;;;;;;;;;23.67;21.67;;;;;13.62;100.00;103159.00;5101709;27;45287;-81
2023/02/04 05:51:41;;;;;;;;;19.33;19.33;;;;;13.62;100.00;103159.00;5096811;27;45912;-81
2023/02/04 05:54:06;;;;;;;;;19.67;17.67;;;;;13.59;100.00;103161.94;5094726;27;47201;-80
2023/02/04 05:56:32;;;;;;;;;20.00;19.00;;;;;13.58;100.00;103162.91;5092732;27;45410;-81
2023/02/04 05:58:57;;;;;;;;;17.00;15.00;;;;;13.49;100.00;103168.06;5101065;27;45362;-81
2023/02/04 06:01:23;;;;;;;;;18.67;17.67;;;;;13.42;100.00;103156.22;5101478;27;45330;-81
2023/02/04 06:03:48;;;;;;;;;24.33;22.00;;;;;13.38;100.00;103154.78;5100718;27;49396;-82
2023/02/04 06:06:13;;;;;;;;;22.00;20.00;;;;;13.39;100.00;103168.00;5105399;27;45289;-81
2023/02/04 06:08:39;;;;;;;;;22.67;19.00;;;;;13.39;100.00;103167.16;5104157;27;45364;-81
2023/02/04 06:11:04;;;;;;;;;22.00;19.67;;;;;13.38;100.00;103166.31;5101176;27;45243;-81
2023/02/04 06:13:30;;;;;;;;;21.67;20.33;;;;;13.38;100.00;103168.97;5100887;27;45156;-81
2023/02/04 06:15:55;;;;;;;;;16.33;15.00;;;;;13.37;100.00;103169.09;5101144;27;45278;-81
2023/02/04 06:18:20;;;;;;;;;20.00;18.67;;;;;13.35;100.00;103157.72;5096407;27;45757;-81
2023/02/04 06:20:46;;;;;;;;;18.67;17.67;;;;;13.36;100.00;103170.09;5089669;27;46162;-81
2023/02/04 06:23:11;;;;;;;;;18.67;17.33;;;;;13.38;100.00;103176.16;5100507;27;54082;-81
2023/02/04 06:25:36;;;;;;;;;17.00;16.33;;;;;13.36;100.00;103172.78;5101110;27;46091;-81
2023/02/04 06:28:02;;;;;;;;;19.33;16.33;;;;;13.35;100.00;103181.78;5100591;27;45211;-81
2023/02/04 06:30:27;;;;;;;;;21.67;19.67;;;;;13.29;100.00;103166.28;5100607;27;45250;-81
2023/02/04 06:32:52;;;;;;;;;17.67;16.00;;;;;13.33;100.00;103175.69;5100630;27;45286;-81
2023/02/04 06:35:18;;;;;;;;;16.33;15.33;;;;;13.34;100.00;103178.25;5097713;27;50781;-81
2023/02/04 06:37:43;;;;;;;;;16.67;16.00;;;;;13.32;100.00;103171.34;5092897;27;45443;-81
2023/02/04 06:40:09;;;;;;;;;12.67;12.00;;;;;13.29;100.00;103172.44;5082324;27;45428;-81
2023/02/04 06:42:35;;;;;;;;;16.33;15.00;;;;;13.30;100.00;103171.47;5092283;27;45520;-80
2023/02/04 06:45:00;;;;;;;;;16.00;13.00;;;;;13.45;100.00;103180.00;5099110;27;45296;-82
2023/02/04 06:47:26;;;;;;;;;18.00;15.33;;;;;13.31;100.00;103174.97;5100618;27;45350;-81
2023/02/04 06:49:51;;;;;;;;;15.67;14.00;;;;;13.33;100.00;103183.72;5100645;27;45294;-80
2023/02/04 06:52:16;;;;;;;;;15.33;13.00;;;;;13.37;100.00;103186.00;5096892;27;53445;-80
2023/02/04 06:54:41;;;;;;;;;16.67;15.00;;;;;13.34;100.00;103180.91;5100359;27;50252;-80
2023/02/04 06:57:07;;;;;;;;;19.00;14.00;;;;;13.34;100.00;103183.59;5096212;27;45327;-79
2023/02/04 06:59:37;;;;;;;;;14.00;13.00;;;;;13.37;100.00;103190.47;5100362;27;45287;-80
2023/02/04 07:02:04;;;;;;;;;10.67;10.00;;;;;13.30;100.00;103184.84;5100244;27;47171;-81
2023/02/04 07:04:30;;;;;;;;;12.00;12.00;;;;;13.36;100.00;103189.66;5099125;27;45423;-81
2023/02/04 07:06:55;;;;;;;;;11.67;11.00;;;;;13.35;100.00;103190.59;5106843;27;45499;-80
2023/02/04 07:09:20;;;;;;;;;13.00;12.67;;;;;13.35;100.00;103192.44;5100321;27;46336;-81
2023/02/04 07:11:46;;;;;;;;;11.00;11.00;;;;;13.33;100.00;103189.06;5099918;27;45286;-81
2023/02/04 07:14:11;;;;;;;;;15.67;12.00;;;;;13.31;100.00;103194.53;5099456;27;50158;-83
2023/02/04 07:16:37;;;;;;;;;12.00;10.33;;;;;13.30;100.00;103192.84;5099202;27;45368;-83
2023/02/04 07:19:02;;;;;;;;;7.33;7.33;;;;;13.30;100.00;103194.66;5100177;27;45803;-82
2023/02/04 07:21:28;;;;;;;;;12.67;12.00;;;;;13.31;100.00;103193.66;5097987;27;47009;-81
2023/02/04 07:23:54;;;;;;;;;11.33;11.33;;;;;13.31;100.00;103199.00;5100180;27;45412;-83
2023/02/04 07:26:19;;;;;;;;;13.67;12.00;;;;;13.35;100.00;103203.13;5099783;27;49103;-81
2023/02/04 07:28:44;;;;;;;;;15.33;12.33;;;;;13.35;100.00;103200.47;5099948;27;45297;-81
2023/02/04 07:31:10;;;;;;;;;10.00;10.00;;;;;13.37;100.00;103209.16;5098106;27;47131;-80
2023/02/04 07:33:35;;;;;;;;;14.67;12.00;;;;;13.33;100.00;103205.06;5095932;27;45963;-81
2023/02/04 07:36:01;;;;;;;;;14.00;10.67;;;;;13.30;100.00;103202.66;5083946;27;45206;-81
2023/02/04 07:38:26;;;;;;;;;13.33;13.33;;;;;13.31;100.00;103212.38;5096461;27;45530;-82
2023/02/04 07:40:52;;;;;;;;;12.33;12.33;;;;;13.33;100.00;103211.28;5098199;27;47709;-83
2023/02/04 07:43:17;;;;;;;;;17.00;15.00;;;;;13.35;100.00;103214.66;5099776;27;45301;-81
2023/02/04 07:45:42;;;;;;;;;18.00;18.00;;;;;13.34;100.00;103220.97;5099800;27;45500;-80
2023/02/04 07:48:09;;;;;;;;;15.33;15.33;;;;;13.32;100.00;103222.09;5099801;27;45499;-82
2023/02/04 07:50:34;;;;;;;;;16.67;15.00;;;;;13.33;100.00;103221.97;5099461;27;45301;-82
2023/02/04 07:53:00;;;;;;;;;17.00;14.00;;;;;13.38;100.00;103226.91;5099041;27;45314;-82
2023/02/04 07:55:25;;;;;;;;;20.00;20.00;;;;;13.39;100.00;103221.41;5098997;27;48000;-82
2023/02/04 07:57:50;;;;;;;;;14.00;12.33;;;;;13.35;100.00;103222.66;5099466;27;45399;-82
2023/02/04 08:00:16;;;;;;;;;14.33;14.00;;;;;13.33;100.00;103221.97;5099291;27;45525;-81
2023/02/04 08:02:41;;;;;;;;;14.00;13.00;;;;;13.31;100.00;103234.59;5099373;27;45376;-81
2023/02/04 08:05:08;;;;;;;;;13.33;13.00;;;;;13.27;100.00;103225.16;5099447;27;45358;-81
2023/02/04 08:07:33;;;;;;;;;13.33;13.00;;;;;13.30;100.00;103234.72;5106367;27;45343;-80
2023/02/04 08:09:58;;;;;;;;;17.67;16.00;;;;;13.45;100.00;103236.09;5099085;27;47852;-81
2023/02/04 08:12:24;;;;;;;;;15.67;14.67;;;;;13.28;100.00;103247.34;5099174;27;52829;-80
2023/02/04 08:14:49;;;;;;;;;15.33;14.00;;;;;13.26;100.00;103243.00;5098860;27;45333;-82
2023/02/04 08:17:14;;;;;;;;;18.00;17.00;;;;;13.28;100.00;103252.69;5093808;27;45231;-82
2023/02/04 08:19:40;;;;;;;;;14.67;14.67;;;;;13.26;100.00;103245.66;5094801;27;46000;-82
2023/02/04 08:22:05;;;;;;;;;16.00;13.00;;;;;13.31;100.00;103249.75;5090181;27;45239;-84
2023/02/04 08:24:31;;;;;;;;;20.00;20.00;;;;;13.26;100.00;103244.84;5095090;27;45341;-81
2023/02/04 08:26:57;;;;;;;;;18.00;17.00;;;;;13.26;100.00;103251.00;5098793;27;52573;-81
2023/02/04 08:29:24;;;;;;;;;15.00;15.00;;;;;13.24;100.00;103258.31;5101620;27;46195;-80
2023/02/04 08:31:50;;;;;;;;;16.67;15.67;;;;;13.22;100.00;103251.38;5102345;27;45420;-81
2023/02/04 08:34:15;;;;;;;;;18.00;13.67;;;;;13.25;100.00;103257.31;5099289;27;45582;-80
2023/02/04 08:36:40;;;;;;;;;13.67;13.67;;;;;13.24;100.00;103249.44;5100816;27;55433;-81
2023/02/04 08:39:06;;;;;;;;;16.33;14.67;;;;;13.22;100.00;103251.38;5100299;27;47977;-80
2023/02/04 08:41:32;;;;;;;;;24.00;23.00;;;;;13.17;100.00;103243.75;5101637;27;50573;-81
2023/02/04 08:43:57;;;;;;;;;27.67;26.67;;;;;13.10;100.00;103242.59;5101454;27;45345;-80
2023/02/04 08:46:23;;;;;;;;;22.33;22.33;;;;;13.07;100.00;103257.06;5096957;27;45384;-81
2023/02/04 08:48:48;;;;;;;;;23.00;20.33;;;;;13.06;100.00;103252.69;5088742;27;48224;-81
2023/02/04 08:51:14;;;;;;;;;13.67;12.00;;;;;13.06;100.00;103249.19;5101707;27;48995;-80
2023/02/04 08:53:39;;;;;;;;;15.67;14.00;;;;;13.07;100.00;103245.53;5096825;27;45334;-81
2023/02/04 08:56:06;;;;;;;;;16.33;14.00;;;;;13.11;100.00;103261.16;5101350;27;45236;-81
2023/02/04 08:58:31;;;;;;;;;17.00;15.67;;;;;13.12;100.00;103251.34;5101314;27;45560;-81
2023/02/04 09:00:56;;;;;;;;;20.67;19.00;;;;;13.17;100.00;103262.47;5102197;27;45893;-81
2023/02/04 09:03:22;;;;;;;;;17.00;17.00;;;;;13.15;100.00;103256.41;5101809;27;45293;-80
2023/02/04 09:05:47;;;;;;;;;13.00;13.00;;;;;13.19;100.00;103267.66;5101694;27;45495;-82
2023/02/04 09:08:14;;;;;;;;;14.33;13.00;;;;;13.19;100.00;103265.00;5088838;27;46109;-81
2023/02/04 09:10:39;;;;;;;;;18.33;14.67;;;;;13.22;100.00;103265.59;5079285;27;45266;-81
2023/02/04 09:13:05;;;;;;;;;19.00;16.67;;;;;13.23;100.00;103274.47;5079298;27;45388;-81
2023/02/04 09:15:30;;;;;;;;;17.67;16.00;;;;;13.26;100.00;103271.53;5081263;27;45846;-81
2023/02/04 09:18:03;;;;;;;;;14.33;14.33;;;;;13.28;100.00;103282.91;5101366;27;45312;-81
2023/02/04 09:20:29;;;;;;;;;16.00;14.33;;;;;13.31;100.00;103277.31;5091965;27;45622;-81
2023/02/04 09:22:54;;;;;;;;;16.67;16.00;;;;;13.31;100.00;103284.47;5097726;27;45489;-81
2023/02/04 09:25:19;;;;;;;;;18.00;18.00;;;;;13.34;100.00;103277.06;5104375;27;45609;-81
2023/02/04 09:27:45;;;;;;;;;27.00;26.00;;;;;13.33;100.00;103277.19;5093820;27;50181;-81
2023/02/04 09:30:10;;;;;;;;;28.33;28.33;;;;;13.34;100.00;103285.06;5100359;27;45448;-82
2023/02/04 09:32:36;;;;;;;;;22.33;20.33;;;;;13.34;100.00;103279.72;5100667;27;45500;-82
2023/02/04 09:35:01;;;;;;;;;19.00;17.00;;;;;13.38;100.00;103283.00;5099267;27;46106;-82
2023/02/04 09:37:28;;;;;;;;;17.33;17.33;;;;;13.34;100.00;103276.22;5098537;27;47156;-81
2023/02/04 09:39:53;;;;;;;;;21.00;19.00;;;;;13.35;100.00;103283.25;5094041;27;45432;-82
2023/02/04 09:42:22;;;;;;;;;21.33;19.67;;;;;13.34;100.00;103289.56;5100200;27;45433;-82
2023/02/04 09:44:47;;;;;;;;;23.00;20.33;;;;;13.35;100.00;103291.28;5096055;27;46343;-81
2023/02/04 09:47:14;;;;;;;;;19.33;19.00;;;;;13.35;100.00;103286.75;5094064;27;46752;-82
2023/02/04 09:49:45;;;;;;;;;20.00;19.67;;;;;13.46;100.00;103296.53;5100585;27;45475;-82
2023/02/04 09:52:15;;;;;;;;;23.00;23.00;;;;;13.39;100.00;103279.34;5096877;27;45416;-82
2023/02/04 09:54:41;;;;;;;;;21.33;20.00;;;;;13.46;100.00;103285.84;5100234;27;46204;-82
2023/02/04 09:57:26;;;;;;;;;18.67;18.67;;;;;13.45;100.00;103291.31;5100123;27;45350;-82
2023/02/04 09:59:52;;;;;;;;;20.67;19.67;;;;;13.45;100.00;103292.19;5099648;27;45342;-82
2023/02/04 10:02:25;;;;;;;;;24.33;22.67;;;;;13.44;100.00;103287.78;5100144;27;45721;-82
2023/02/04 10:04:56;;;;;;;;;24.33;24.33;;;;;13.54;100.00;103300.41;5100608;27;45385;-82
2023/02/04 10:07:24;;;;;;;;;29.67;26.67;;;;;13.45;100.00;103284.16;5106793;27;46500;-82
2023/02/04 10:09:50;;;;;;;;;27.00;23.67;;;;;13.45;100.00;103294.84;5099853;27;45463;-82
2023/02/04 10:12:16;;;;;;;;;22.00;20.33;;;;;13.44;100.00;103289.66;5100326;27;45361;-82
2023/02/04 10:14:42;;;;;;;;;23.00;22.00;;;;;13.43;100.00;103296.81;5097951;27;46013;-82
2023/02/04 10:17:10;;;;;;;;;22.00;21.33;;;;;13.50;100.00;103299.84;5087089;27;45387;-83
2023/02/04 10:19:35;;;;;;;;;22.67;21.67;;;;;13.55;100.00;103302.09;5099767;27;45366;-83
2023/02/04 10:22:03;;;;;;;;;22.67;22.67;;;;;13.56;100.00;103311.81;5098848;27;45419;-82
2023/02/04 10:24:29;;;;;;;;;26.67;23.33;;;;;13.56;100.00;103315.31;5100126;27;45292;-82
2023/02/04 10:27:09;;;;;;;;;25.33;23.00;;;;;13.60;100.00;103315.91;5099582;27;45727;-82
2023/02/04 10:29:35;;;;;;;;;20.00;20.00;;;;;13.65;100.00;103321.72;5095379;27;45389;-84
2023/02/04 10:32:00;;;;;;;;;25.67;23.33;;;;;13.59;100.00;103325.75;5094725;27;45354;-84
2023/02/04 10:34:38;;;;;;;;;24.33;22.00;;;;;13.58;100.00;103323.22;5096312;27;45477;-85
2023/02/04 10:37:18;;;;;;;;;24.33;21.67;;;;;13.53;100.00;103322.78;5098978;27;45675;-84
2023/02/04 10:39:43;;;;;;;;;21.00;20.33;;;;;13.46;100.00;103322.41;5100032;27;45394;-83
2023/02/04 10:42:20;;;;;;;;;26.00;25.00;;;;;13.45;100.00;103315.38;5094435;27;53052;-82
2023/02/04 10:44:46;;;;;;;;;23.33;21.33;;;;;13.48;100.00;103318.63;5081729;27;46803;-82
2023/02/04 10:47:23;;;;;;;;;27.00;26.00;;;;;13.47;100.00;103319.59;5089879;27;46180;-83
2023/02/04 10:49:56;;;;;;;;;23.67;22.67;;;;;13.50;100.00;103332.72;5099435;27;45400;-83
2023/02/04 10:52:32;;;;;;;;;28.67;25.33;;;;;13.54;100.00;103325.31;5097391;27;45380;-83
2023/02/04 10:54:58;;;;;;;;;23.33;22.33;;;;;13.58;100.00;103329.41;5098371;27;46606;-83
2023/02/04 10:57:28;;;;;;;;;25.33;23.67;;;;;13.56;100.00;103322.50;5095433;27;48780;-82